sensor_id;sensor_type;location;lat;lon;timestamp;P1;durP1;ratioP1;P2;durP2;ratioP2
34505;SDS011;20748;42.632;23.198;2023-07-13T00:02:56;4.47;;;2.80;;
34505;SDS011;20748;42.632;23.198;2023-07-13T00:05:28;4.10;;;2.78;;
34505;SDS011;20748;42.632;23.198;2023-07-13T00:08:01;5.13;;;2.60;;
34505;SDS011;20748;42.632;23.198;2023-07-13T00:10:33;6.65;;;3.00;;
34505;SDS011;20748;42.632;23.198;2023-07-13T00:13:05;5.97;;;2.95;;
34505;SDS011;20748;42.632;23.198;2023-07-13T00:15:38;5.75;;;2.83;;
34505;SDS011;20748;42.632;23.198;2023-07-13T00:18:11;4.68;;;2.70;;
34505;SDS011;20748;42.632;23.198;2023-07-13T00:24:43;5.63;;;3.17;;
34505;SDS011;20748;42.632;23.198;2023-07-13T00:27:16;5.22;;;2.60;;
34505;SDS011;20748;42.632;23.198;2023-07-13T00:29:49;4.20;;;2.53;;
34505;SDS011;20748;42.632;23.198;2023-07-13T00:32:23;3.97;;;2.55;;
34505;SDS011;20748;42.632;23.198;2023-07-13T00:34:57;5.85;;;3.10;;
34505;SDS011;20748;42.632;23.198;2023-07-13T00:37:32;4.85;;;2.67;;
34505;SDS011;20748;42.632;23.198;2023-07-13T00:40:09;5.03;;;3.42;;
34505;SDS011;20748;42.632;23.198;2023-07-13T00:48:31;6.47;;;2.78;;
34505;SDS011;20748;42.632;23.198;2023-07-13T00:51:06;4.15;;;2.80;;
34505;SDS011;20748;42.632;23.198;2023-07-13T00:53:38;5.22;;;2.45;;
34505;SDS011;20748;42.632;23.198;2023-07-13T00:56:12;4.38;;;2.58;;
34505;SDS011;20748;42.632;23.198;2023-07-13T00:58:45;4.88;;;2.92;;
34505;SDS011;20748;42.632;23.198;2023-07-13T01:01:18;4.28;;;2.83;;
34505;SDS011;20748;42.632;23.198;2023-07-13T01:03:51;5.10;;;2.80;;
34505;SDS011;20748;42.632;23.198;2023-07-13T01:10:03;5.20;;;2.63;;
34505;SDS011;20748;42.632;23.198;2023-07-13T01:12:36;5.93;;;3.28;;
34505;SDS011;20748;42.632;23.198;2023-07-13T01:18:07;6.72;;;2.92;;
34505;SDS011;20748;42.632;23.198;2023-07-13T01:20:46;4.70;;;2.80;;
34505;SDS011;20748;42.632;23.198;2023-07-13T01:23:22;5.40;;;2.92;;
34505;SDS011;20748;42.632;23.198;2023-07-13T01:25:56;5.38;;;3.20;;
34505;SDS011;20748;42.632;23.198;2023-07-13T01:36:22;7.82;;;2.78;;
34505;SDS011;20748;42.632;23.198;2023-07-13T01:38:55;5.82;;;2.97;;
34505;SDS011;20748;42.632;23.198;2023-07-13T01:41:28;5.57;;;2.40;;
34505;SDS011;20748;42.632;23.198;2023-07-13T01:44:00;6.97;;;3.28;;
34505;SDS011;20748;42.632;23.198;2023-07-13T01:46:33;5.05;;;3.08;;
34505;SDS011;20748;42.632;23.198;2023-07-13T01:49:05;6.90;;;2.95;;
34505;SDS011;20748;42.632;23.198;2023-07-13T01:51:38;4.13;;;3.08;;
34505;SDS011;20748;42.632;23.198;2023-07-13T01:56:54;6.32;;;3.00;;
34505;SDS011;20748;42.632;23.198;2023-07-13T01:59:27;5.95;;;3.03;;
34505;SDS011;20748;42.632;23.198;2023-07-13T02:01:59;6.50;;;3.40;;
34505;SDS011;20748;42.632;23.198;2023-07-13T02:04:32;4.70;;;2.90;;
34505;SDS011;20748;42.632;23.198;2023-07-13T02:07:05;4.68;;;3.20;;
34505;SDS011;20748;42.632;23.198;2023-07-13T02:09:37;6.28;;;3.65;;
34505;SDS011;20748;42.632;23.198;2023-07-13T02:12:11;4.65;;;2.60;;
34505;SDS011;20748;42.632;23.198;2023-07-13T02:20:53;5.95;;;3.13;;
34505;SDS011;20748;42.632;23.198;2023-07-13T02:23:25;7.00;;;3.15;;
34505;SDS011;20748;42.632;23.198;2023-07-13T02:25:59;5.90;;;3.00;;
34505;SDS011;20748;42.632;23.198;2023-07-13T02:28:32;5.25;;;2.97;;
34505;SDS011;20748;42.632;23.198;2023-07-13T02:31:06;3.38;;;2.20;;
34505;SDS011;20748;42.632;23.198;2023-07-13T02:33:39;9.18;;;3.85;;
34505;SDS011;20748;42.632;23.198;2023-07-13T02:36:12;5.00;;;3.08;;
34505;SDS011;20748;42.632;23.198;2023-07-13T02:41:38;5.25;;;3.13;;
34505;SDS011;20748;42.632;23.198;2023-07-13T02:44:12;9.13;;;3.65;;
34505;SDS011;20748;42.632;23.198;2023-07-13T02:46:45;6.18;;;3.63;;
34505;SDS011;20748;42.632;23.198;2023-07-13T02:49:18;4.78;;;3.20;;
34505;SDS011;20748;42.632;23.198;2023-07-13T02:51:50;5.35;;;3.08;;
34505;SDS011;20748;42.632;23.198;2023-07-13T02:54:23;5.32;;;2.90;;
34505;SDS011;20748;42.632;23.198;2023-07-13T02:56:56;5.68;;;3.47;;
34505;SDS011;20748;42.632;23.198;2023-07-13T03:03:55;6.63;;;3.95;;
34505;SDS011;20748;42.632;23.198;2023-07-13T03:06:27;6.32;;;2.97;;
34505;SDS011;20748;42.632;23.198;2023-07-13T03:09:02;5.35;;;3.47;;
34505;SDS011;20748;42.632;23.198;2023-07-13T03:11:37;4.53;;;3.22;;
34505;SDS011;20748;42.632;23.198;2023-07-13T03:14:22;5.75;;;3.65;;
34505;SDS011;20748;42.632;23.198;2023-07-13T03:16:55;4.38;;;3.10;;
34505;SDS011;20748;42.632;23.198;2023-07-13T03:19:32;5.55;;;3.42;;
34505;SDS011;20748;42.632;23.198;2023-07-13T03:27:28;10.57;;;4.43;;
34505;SDS011;20748;42.632;23.198;2023-07-13T03:30:02;6.97;;;3.63;;
34505;SDS011;20748;42.632;23.198;2023-07-13T03:32:35;6.28;;;3.70;;
34505;SDS011;20748;42.632;23.198;2023-07-13T03:35:08;6.28;;;3.30;;
34505;SDS011;20748;42.632;23.198;2023-07-13T03:37:42;9.05;;;3.20;;
34505;SDS011;20748;42.632;23.198;2023-07-13T03:40:19;6.00;;;3.97;;
34505;SDS011;20748;42.632;23.198;2023-07-13T03:42:53;8.45;;;4.05;;
34505;SDS011;20748;42.632;23.198;2023-07-13T03:45:27;6.00;;;3.10;;
34505;SDS011;20748;42.632;23.198;2023-07-13T03:53:34;7.90;;;4.50;;
34505;SDS011;20748;42.632;23.198;2023-07-13T03:56:07;7.85;;;4.22;;
34505;SDS011;20748;42.632;23.198;2023-07-13T03:58:41;7.93;;;4.70;;
34505;SDS011;20748;42.632;23.198;2023-07-13T04:01:21;5.82;;;3.58;;
34505;SDS011;20748;42.632;23.198;2023-07-13T04:03:54;5.88;;;3.80;;
34505;SDS011;20748;42.632;23.198;2023-07-13T04:06:29;6.65;;;4.18;;
34505;SDS011;20748;42.632;23.198;2023-07-13T04:09:03;6.00;;;3.58;;
34505;SDS011;20748;42.632;23.198;2023-07-13T04:14:35;6.57;;;3.88;;
34505;SDS011;20748;42.632;23.198;2023-07-13T04:17:07;11.63;;;4.70;;
34505;SDS011;20748;42.632;23.198;2023-07-13T04:19:40;6.10;;;3.85;;
34505;SDS011;20748;42.632;23.198;2023-07-13T04:22:12;6.45;;;3.90;;
34505;SDS011;20748;42.632;23.198;2023-07-13T04:24:45;8.48;;;4.40;;
34505;SDS011;20748;42.632;23.198;2023-07-13T04:27:18;7.90;;;4.03;;
34505;SDS011;20748;42.632;23.198;2023-07-13T04:29:51;9.15;;;4.68;;
34505;SDS011;20748;42.632;23.198;2023-07-13T04:32:23;8.40;;;4.60;;
34505;SDS011;20748;42.632;23.198;2023-07-13T04:40:31;7.28;;;4.85;;
34505;SDS011;20748;42.632;23.198;2023-07-13T04:43:03;6.90;;;4.30;;
34505;SDS011;20748;42.632;23.198;2023-07-13T04:45:36;8.10;;;4.43;;
34505;SDS011;20748;42.632;23.198;2023-07-13T04:48:08;8.15;;;4.50;;
34505;SDS011;20748;42.632;23.198;2023-07-13T04:50:41;8.55;;;4.63;;
34505;SDS011;20748;42.632;23.198;2023-07-13T04:53:14;9.13;;;4.68;;
34505;SDS011;20748;42.632;23.198;2023-07-13T04:55:47;12.32;;;5.47;;
34505;SDS011;20748;42.632;23.198;2023-07-13T05:01:18;20.67;;;5.60;;
34505;SDS011;20748;42.632;23.198;2023-07-13T05:03:51;9.63;;;4.63;;
34505;SDS011;20748;42.632;23.198;2023-07-13T05:06:24;9.32;;;4.65;;
34505;SDS011;20748;42.632;23.198;2023-07-13T05:08:56;7.40;;;5.18;;
34505;SDS011;20748;42.632;23.198;2023-07-13T05:11:29;11.10;;;4.75;;
34505;SDS011;20748;42.632;23.198;2023-07-13T05:14:02;10.20;;;5.65;;
34505;SDS011;20748;42.632;23.198;2023-07-13T05:16:35;9.23;;;4.25;;
34505;SDS011;20748;42.632;23.198;2023-07-13T05:25:44;7.32;;;4.53;;
34505;SDS011;20748;42.632;23.198;2023-07-13T05:28:16;8.15;;;5.03;;
34505;SDS011;20748;42.632;23.198;2023-07-13T05:30:49;8.15;;;4.72;;
34505;SDS011;20748;42.632;23.198;2023-07-13T05:33:22;7.28;;;4.45;;
34505;SDS011;20748;42.632;23.198;2023-07-13T05:35:55;15.20;;;5.57;;
34505;SDS011;20748;42.632;23.198;2023-07-13T05:38:28;7.85;;;4.10;;
34505;SDS011;20748;42.632;23.198;2023-07-13T05:41:01;7.30;;;4.38;;
34505;SDS011;20748;42.632;23.198;2023-07-13T05:47:32;9.70;;;4.63;;
34505;SDS011;20748;42.632;23.198;2023-07-13T05:50:05;11.93;;;5.95;;
34505;SDS011;20748;42.632;23.198;2023-07-13T05:52:38;6.88;;;4.43;;
34505;SDS011;20748;42.632;23.198;2023-07-13T05:55:10;9.38;;;5.32;;
34505;SDS011;20748;42.632;23.198;2023-07-13T05:57:43;8.82;;;4.88;;
34505;SDS011;20748;42.632;23.198;2023-07-13T06:00:15;10.32;;;5.30;;
34505;SDS011;20748;42.632;23.198;2023-07-13T06:02:49;10.02;;;4.80;;
34505;SDS011;20748;42.632;23.198;2023-07-13T06:10:35;9.93;;;5.47;;
34505;SDS011;20748;42.632;23.198;2023-07-13T06:13:08;11.10;;;5.63;;
34505;SDS011;20748;42.632;23.198;2023-07-13T06:15:41;13.32;;;5.40;;
34505;SDS011;20748;42.632;23.198;2023-07-13T06:18:13;10.40;;;4.75;;
34505;SDS011;20748;42.632;23.198;2023-07-13T06:20:45;12.25;;;5.53;;
34505;SDS011;20748;42.632;23.198;2023-07-13T06:23:18;10.52;;;5.22;;
34505;SDS011;20748;42.632;23.198;2023-07-13T06:25:51;13.68;;;5.45;;
34505;SDS011;20748;42.632;23.198;2023-07-13T06:31:22;11.68;;;6.10;;
34505;SDS011;20748;42.632;23.198;2023-07-13T06:33:54;11.57;;;5.75;;
34505;SDS011;20748;42.632;23.198;2023-07-13T06:36:27;14.88;;;5.35;;
34505;SDS011;20748;42.632;23.198;2023-07-13T06:38:59;10.57;;;5.88;;
34505;SDS011;20748;42.632;23.198;2023-07-13T06:41:32;9.52;;;6.20;;
34505;SDS011;20748;42.632;23.198;2023-07-13T06:44:04;15.68;;;6.00;;
34505;SDS011;20748;42.632;23.198;2023-07-13T06:46:38;14.00;;;6.10;;
34505;SDS011;20748;42.632;23.198;2023-07-13T06:51:59;14.18;;;9.25;;
34505;SDS011;20748;42.632;23.198;2023-07-13T06:54:32;15.65;;;6.93;;
34505;SDS011;20748;42.632;23.198;2023-07-13T06:57:04;16.17;;;7.20;;
34505;SDS011;20748;42.632;23.198;2023-07-13T06:59:37;12.20;;;6.65;;
34505;SDS011;20748;42.632;23.198;2023-07-13T07:02:10;18.02;;;6.63;;
34505;SDS011;20748;42.632;23.198;2023-07-13T07:04:43;15.27;;;8.07;;
34505;SDS011;20748;42.632;23.198;2023-07-13T07:07:16;16.35;;;7.20;;
34505;SDS011;20748;42.632;23.198;2023-07-13T07:12:36;15.52;;;9.30;;
34505;SDS011;20748;42.632;23.198;2023-07-13T07:15:09;15.52;;;7.93;;
34505;SDS011;20748;42.632;23.198;2023-07-13T07:17:42;12.15;;;6.35;;
34505;SDS011;20748;42.632;23.198;2023-07-13T07:20:15;13.63;;;6.25;;
34505;SDS011;20748;42.632;23.198;2023-07-13T07:22:47;9.30;;;4.88;;
34505;SDS011;20748;42.632;23.198;2023-07-13T07:25:20;11.43;;;4.72;;
34505;SDS011;20748;42.632;23.198;2023-07-13T07:27:53;7.82;;;4.10;;
34505;SDS011;20748;42.632;23.198;2023-07-13T07:33:11;12.55;;;4.60;;
34505;SDS011;20748;42.632;23.198;2023-07-13T07:35:44;8.23;;;4.13;;
34505;SDS011;20748;42.632;23.198;2023-07-13T07:38:36;8.07;;;4.20;;
34505;SDS011;20748;42.632;23.198;2023-07-13T07:41:09;5.78;;;4.13;;
34505;SDS011;20748;42.632;23.198;2023-07-13T07:43:44;8.02;;;3.50;;
34505;SDS011;20748;42.632;23.198;2023-07-13T07:46:16;5.60;;;3.85;;
34505;SDS011;20748;42.632;23.198;2023-07-13T07:48:50;5.70;;;3.85;;
34505;SDS011;20748;42.632;23.198;2023-07-13T07:57:59;4.32;;;2.60;;
34505;SDS011;20748;42.632;23.198;2023-07-13T08:00:35;4.47;;;2.78;;
34505;SDS011;20748;42.632;23.198;2023-07-13T08:03:27;4.07;;;3.08;;
34505;SDS011;20748;42.632;23.198;2023-07-13T08:06:20;4.30;;;2.92;;
34505;SDS011;20748;42.632;23.198;2023-07-13T08:08:56;6.63;;;3.25;;
34505;SDS011;20748;42.632;23.198;2023-07-13T08:11:28;8.13;;;2.83;;
34505;SDS011;20748;42.632;23.198;2023-07-13T08:16:47;4.80;;;2.92;;
34505;SDS011;20748;42.632;23.198;2023-07-13T08:19:19;6.15;;;3.28;;
34505;SDS011;20748;42.632;23.198;2023-07-13T08:21:51;5.00;;;3.10;;
34505;SDS011;20748;42.632;23.198;2023-07-13T08:24:24;5.57;;;3.33;;
34505;SDS011;20748;42.632;23.198;2023-07-13T08:26:56;4.43;;;3.13;;
34505;SDS011;20748;42.632;23.198;2023-07-13T08:29:29;6.93;;;3.50;;
34505;SDS011;20748;42.632;23.198;2023-07-13T08:32:04;3.58;;;2.70;;
34505;SDS011;20748;42.632;23.198;2023-07-13T08:37:33;4.88;;;3.28;;
34505;SDS011;20748;42.632;23.198;2023-07-13T08:40:07;5.70;;;2.67;;
34505;SDS011;20748;42.632;23.198;2023-07-13T08:42:43;7.03;;;3.00;;
34505;SDS011;20748;42.632;23.198;2023-07-13T08:45:20;5.72;;;2.65;;
34505;SDS011;20748;42.632;23.198;2023-07-13T08:47:55;5.70;;;2.58;;
34505;SDS011;20748;42.632;23.198;2023-07-13T08:50:35;4.80;;;2.70;;
34505;SDS011;20748;42.632;23.198;2023-07-13T08:53:36;5.20;;;3.28;;
34505;SDS011;20748;42.632;23.198;2023-07-13T09:01:35;5.80;;;2.60;;
34505;SDS011;20748;42.632;23.198;2023-07-13T09:04:20;5.25;;;2.72;;
34505;SDS011;20748;42.632;23.198;2023-07-13T09:06:58;8.23;;;3.15;;
34505;SDS011;20748;42.632;23.198;2023-07-13T09:09:40;4.90;;;3.30;;
34505;SDS011;20748;42.632;23.198;2023-07-13T09:12:23;9.07;;;3.40;;
34505;SDS011;20748;42.632;23.198;2023-07-13T09:15:03;5.30;;;3.63;;
34505;SDS011;20748;42.632;23.198;2023-07-13T09:20:26;4.90;;;3.33;;
34505;SDS011;20748;42.632;23.198;2023-07-13T09:23:04;6.65;;;3.28;;
34505;SDS011;20748;42.632;23.198;2023-07-13T09:25:41;6.68;;;3.88;;
34505;SDS011;20748;42.632;23.198;2023-07-13T09:28:20;8.40;;;3.70;;
34505;SDS011;20748;42.632;23.198;2023-07-13T09:30:56;5.07;;;3.47;;
34505;SDS011;20748;42.632;23.198;2023-07-13T09:33:34;5.57;;;3.45;;
34505;SDS011;20748;42.632;23.198;2023-07-13T09:36:16;4.90;;;3.13;;
34505;SDS011;20748;42.632;23.198;2023-07-13T09:41:41;5.57;;;3.10;;
34505;SDS011;20748;42.632;23.198;2023-07-13T09:44:27;3.70;;;2.80;;
34505;SDS011;20748;42.632;23.198;2023-07-13T09:47:02;4.13;;;2.95;;
34505;SDS011;20748;42.632;23.198;2023-07-13T09:49:35;7.20;;;3.50;;
34505;SDS011;20748;42.632;23.198;2023-07-13T09:52:10;5.63;;;3.08;;
34505;SDS011;20748;42.632;23.198;2023-07-13T09:54:46;4.90;;;3.47;;
34505;SDS011;20748;42.632;23.198;2023-07-13T09:57:23;8.25;;;4.15;;
34505;SDS011;20748;42.632;23.198;2023-07-13T10:03:28;5.57;;;3.47;;
34505;SDS011;20748;42.632;23.198;2023-07-13T10:06:11;4.72;;;3.28;;
34505;SDS011;20748;42.632;23.198;2023-07-13T10:08:46;5.20;;;3.17;;
34505;SDS011;20748;42.632;23.198;2023-07-13T10:11:20;8.27;;;3.53;;
34505;SDS011;20748;42.632;23.198;2023-07-13T10:13:55;5.07;;;3.05;;
34505;SDS011;20748;42.632;23.198;2023-07-13T10:16:30;3.75;;;2.78;;
34505;SDS011;20748;42.632;23.198;2023-07-13T10:19:06;5.05;;;3.08;;
34505;SDS011;20748;42.632;23.198;2023-07-13T10:27:09;5.78;;;3.70;;
34505;SDS011;20748;42.632;23.198;2023-07-13T10:29:48;9.73;;;3.95;;
34505;SDS011;20748;42.632;23.198;2023-07-13T10:32:25;7.72;;;4.15;;
34505;SDS011;20748;42.632;23.198;2023-07-13T10:34:58;5.50;;;3.40;;
34505;SDS011;20748;42.632;23.198;2023-07-13T10:37:35;4.65;;;3.38;;
34505;SDS011;20748;42.632;23.198;2023-07-13T10:40:14;4.85;;;3.53;;
34505;SDS011;20748;42.632;23.198;2023-07-13T10:42:51;4.45;;;2.90;;
34505;SDS011;20748;42.632;23.198;2023-07-13T10:48:15;6.53;;;3.80;;
34505;SDS011;20748;42.632;23.198;2023-07-13T10:50:49;6.63;;;3.35;;
34505;SDS011;20748;42.632;23.198;2023-07-13T10:53:27;5.03;;;3.92;;
34505;SDS011;20748;42.632;23.198;2023-07-13T10:56:02;4.47;;;3.15;;
34505;SDS011;20748;42.632;23.198;2023-07-13T10:58:37;5.35;;;3.58;;
34505;SDS011;20748;42.632;23.198;2023-07-13T11:01:11;4.80;;;3.25;;
34505;SDS011;20748;42.632;23.198;2023-07-13T11:03:49;5.82;;;4.10;;
34505;SDS011;20748;42.632;23.198;2023-07-13T11:09:19;5.22;;;4.28;;
34505;SDS011;20748;42.632;23.198;2023-07-13T11:12:09;5.32;;;3.60;;
34505;SDS011;20748;42.632;23.198;2023-07-13T11:15:02;5.18;;;4.10;;
34505;SDS011;20748;42.632;23.198;2023-07-13T11:17:47;6.90;;;4.05;;
34505;SDS011;20748;42.632;23.198;2023-07-13T11:23:27;5.65;;;3.75;;
34505;SDS011;20748;42.632;23.198;2023-07-13T11:26:03;13.90;;;5.18;;
34505;SDS011;20748;42.632;23.198;2023-07-13T11:36:17;4.75;;;3.65;;
34505;SDS011;20748;42.632;23.198;2023-07-13T11:38:56;5.22;;;3.20;;
34505;SDS011;20748;42.632;23.198;2023-07-13T11:41:34;6.10;;;3.13;;
34505;SDS011;20748;42.632;23.198;2023-07-13T11:44:11;5.75;;;3.33;;
34505;SDS011;20748;42.632;23.198;2023-07-13T11:46:46;5.22;;;3.25;;
34505;SDS011;20748;42.632;23.198;2023-07-13T11:49:23;5.57;;;3.37;;
34505;SDS011;20748;42.632;23.198;2023-07-13T11:51:59;5.50;;;3.00;;
34505;SDS011;20748;42.632;23.198;2023-07-13T12:02:16;4.75;;;3.10;;
34505;SDS011;20748;42.632;23.198;2023-07-13T12:04:56;8.25;;;2.58;;
34505;SDS011;20748;42.632;23.198;2023-07-13T12:07:31;7.40;;;3.33;;
34505;SDS011;20748;42.632;23.198;2023-07-13T12:10:13;7.25;;;3.28;;
34505;SDS011;20748;42.632;23.198;2023-07-13T12:12:51;4.90;;;3.30;;
34505;SDS011;20748;42.632;23.198;2023-07-13T12:15:28;9.50;;;3.45;;
34505;SDS011;20748;42.632;23.198;2023-07-13T12:18:12;5.18;;;3.47;;
34505;SDS011;20748;42.632;23.198;2023-07-13T12:28:38;4.80;;;3.13;;
34505;SDS011;20748;42.632;23.198;2023-07-13T12:31:22;8.63;;;4.88;;
34505;SDS011;20748;42.632;23.198;2023-07-13T12:33:57;6.72;;;2.88;;
34505;SDS011;20748;42.632;23.198;2023-07-13T12:36:33;5.70;;;3.45;;
34505;SDS011;20748;42.632;23.198;2023-07-13T12:39:12;4.78;;;3.33;;
34505;SDS011;20748;42.632;23.198;2023-07-13T12:41:47;6.63;;;3.58;;
34505;SDS011;20748;42.632;23.198;2023-07-13T12:44:24;5.57;;;3.80;;
34505;SDS011;20748;42.632;23.198;2023-07-13T12:54:53;7.07;;;3.55;;
34505;SDS011;20748;42.632;23.198;2023-07-13T12:57:38;13.40;;;4.22;;
34505;SDS011;20748;42.632;23.198;2023-07-13T13:00:19;4.07;;;2.80;;
34505;SDS011;20748;42.632;23.198;2023-07-13T13:02:56;7.45;;;3.40;;
34505;SDS011;20748;42.632;23.198;2023-07-13T13:05:49;6.43;;;3.55;;
34505;SDS011;20748;42.632;23.198;2023-07-13T13:08:29;6.65;;;2.92;;
34505;SDS011;20748;42.632;23.198;2023-07-13T13:11:02;7.38;;;3.20;;
34505;SDS011;20748;42.632;23.198;2023-07-13T13:21:26;7.20;;;2.72;;
34505;SDS011;20748;42.632;23.198;2023-07-13T13:23:58;7.38;;;2.92;;
34505;SDS011;20748;42.632;23.198;2023-07-13T13:26:31;3.92;;;2.40;;
34505;SDS011;20748;42.632;23.198;2023-07-13T13:29:08;6.40;;;3.25;;
34505;SDS011;20748;42.632;23.198;2023-07-13T13:31:45;5.00;;;3.42;;
34505;SDS011;20748;42.632;23.198;2023-07-13T13:34:18;5.97;;;3.42;;
34505;SDS011;20748;42.632;23.198;2023-07-13T13:36:52;6.18;;;3.33;;
34505;SDS011;20748;42.632;23.198;2023-07-13T13:47:25;6.35;;;3.10;;
34505;SDS011;20748;42.632;23.198;2023-07-13T13:50:07;6.43;;;3.40;;
34505;SDS011;20748;42.632;23.198;2023-07-13T13:52:43;6.05;;;3.10;;
34505;SDS011;20748;42.632;23.198;2023-07-13T13:55:16;6.13;;;3.35;;
34505;SDS011;20748;42.632;23.198;2023-07-13T13:57:50;8.45;;;2.90;;
34505;SDS011;20748;42.632;23.198;2023-07-13T14:00:23;4.57;;;2.92;;
34505;SDS011;20748;42.632;23.198;2023-07-13T14:02:56;7.55;;;2.90;;
34505;SDS011;20748;42.632;23.198;2023-07-13T14:09:24;8.85;;;3.28;;
34505;SDS011;20748;42.632;23.198;2023-07-13T14:11:56;5.47;;;3.63;;
34505;SDS011;20748;42.632;23.198;2023-07-13T14:14:29;8.57;;;4.00;;
34505;SDS011;20748;42.632;23.198;2023-07-13T14:17:02;5.95;;;3.05;;
34505;SDS011;20748;42.632;23.198;2023-07-13T14:19:35;5.38;;;3.00;;
34505;SDS011;20748;42.632;23.198;2023-07-13T14:22:07;10.30;;;3.47;;
34505;SDS011;20748;42.632;23.198;2023-07-13T14:24:40;4.10;;;2.60;;
34505;SDS011;20748;42.632;23.198;2023-07-13T14:31:12;6.07;;;3.45;;
34505;SDS011;20748;42.632;23.198;2023-07-13T14:33:46;6.78;;;3.35;;
34505;SDS011;20748;42.632;23.198;2023-07-13T14:36:27;7.57;;;3.70;;
34505;SDS011;20748;42.632;23.198;2023-07-13T14:39:01;7.32;;;4.32;;
34505;SDS011;20748;42.632;23.198;2023-07-13T14:41:43;5.03;;;3.47;;
34505;SDS011;20748;42.632;23.198;2023-07-13T14:44:16;5.78;;;4.35;;
34505;SDS011;20748;42.632;23.198;2023-07-13T14:46:55;6.45;;;3.35;;
34505;SDS011;20748;42.632;23.198;2023-07-13T14:50:35;7.10;;;3.00;;
34505;SDS011;20748;42.632;23.198;2023-07-13T14:53:10;8.85;;;3.20;;
34505;SDS011;20748;42.632;23.198;2023-07-13T14:55:43;7.07;;;3.15;;
34505;SDS011;20748;42.632;23.198;2023-07-13T14:58:15;10.25;;;3.90;;
34505;SDS011;20748;42.632;23.198;2023-07-13T15:00:47;11.85;;;4.13;;
34505;SDS011;20748;42.632;23.198;2023-07-13T15:03:23;5.18;;;3.13;;
34505;SDS011;20748;42.632;23.198;2023-07-13T15:05:58;5.90;;;2.97;;
34505;SDS011;20748;42.632;23.198;2023-07-13T15:14:57;6.88;;;3.20;;
34505;SDS011;20748;42.632;23.198;2023-07-13T15:17:31;6.93;;;3.25;;
34505;SDS011;20748;42.632;23.198;2023-07-13T15:20:14;5.05;;;3.35;;
34505;SDS011;20748;42.632;23.198;2023-07-13T15:22:51;7.65;;;2.70;;
34505;SDS011;20748;42.632;23.198;2023-07-13T15:25:24;7.50;;;3.33;;
34505;SDS011;20748;42.632;23.198;2023-07-13T15:27:58;5.72;;;3.85;;
34505;SDS011;20748;42.632;23.198;2023-07-13T15:30:34;5.80;;;3.25;;
34505;SDS011;20748;42.632;23.198;2023-07-13T15:38:31;7.65;;;4.05;;
34505;SDS011;20748;42.632;23.198;2023-07-13T15:41:09;5.15;;;2.58;;
34505;SDS011;20748;42.632;23.198;2023-07-13T15:43:48;9.75;;;4.53;;
34505;SDS011;20748;42.632;23.198;2023-07-13T15:46:22;5.97;;;3.20;;
34505;SDS011;20748;42.632;23.198;2023-07-13T15:48:56;7.50;;;3.92;;
34505;SDS011;20748;42.632;23.198;2023-07-13T15:51:30;10.45;;;3.33;;
34505;SDS011;20748;42.632;23.198;2023-07-13T15:54:08;7.00;;;3.78;;
34505;SDS011;20748;42.632;23.198;2023-07-13T16:02:10;6.25;;;3.65;;
34505;SDS011;20748;42.632;23.198;2023-07-13T16:04:45;7.55;;;3.80;;
34505;SDS011;20748;42.632;23.198;2023-07-13T16:07:17;6.47;;;3.17;;
34505;SDS011;20748;42.632;23.198;2023-07-13T16:09:50;5.03;;;3.33;;
34505;SDS011;20748;42.632;23.198;2023-07-13T16:12:23;5.82;;;3.53;;
34505;SDS011;20748;42.632;23.198;2023-07-13T16:14:56;5.05;;;3.05;;
34505;SDS011;20748;42.632;23.198;2023-07-13T16:17:29;6.55;;;3.20;;
34505;SDS011;20748;42.632;23.198;2023-07-13T16:24:08;4.88;;;3.30;;
34505;SDS011;20748;42.632;23.198;2023-07-13T16:26:48;8.60;;;3.17;;
34505;SDS011;20748;42.632;23.198;2023-07-13T16:29:22;7.43;;;3.25;;
34505;SDS011;20748;42.632;23.198;2023-07-13T16:31:56;5.18;;;3.47;;
34505;SDS011;20748;42.632;23.198;2023-07-13T16:34:29;5.60;;;3.75;;
34505;SDS011;20748;42.632;23.198;2023-07-13T16:37:03;5.18;;;2.88;;
34505;SDS011;20748;42.632;23.198;2023-07-13T16:39:44;4.80;;;3.28;;
34505;SDS011;20748;42.632;23.198;2023-07-13T16:48:56;10.95;;;3.80;;
34505;SDS011;20748;42.632;23.198;2023-07-13T16:51:28;5.05;;;3.38;;
34505;SDS011;20748;42.632;23.198;2023-07-13T16:54:01;8.10;;;3.83;;
34505;SDS011;20748;42.632;23.198;2023-07-13T16:56:33;5.00;;;3.05;;
34505;SDS011;20748;42.632;23.198;2023-07-13T16:59:09;5.72;;;3.55;;
34505;SDS011;20748;42.632;23.198;2023-07-13T17:01:46;4.03;;;2.85;;
34505;SDS011;20748;42.632;23.198;2023-07-13T17:04:19;6.93;;;3.33;;
34505;SDS011;20748;42.632;23.198;2023-07-13T17:10:37;6.25;;;2.95;;
34505;SDS011;20748;42.632;23.198;2023-07-13T17:13:11;8.65;;;4.32;;
34505;SDS011;20748;42.632;23.198;2023-07-13T17:15:45;7.70;;;4.25;;
34505;SDS011;20748;42.632;23.198;2023-07-13T17:18:19;10.77;;;3.70;;
34505;SDS011;20748;42.632;23.198;2023-07-13T17:20:52;5.70;;;3.45;;
34505;SDS011;20748;42.632;23.198;2023-07-13T17:23:26;10.68;;;3.78;;
34505;SDS011;20748;42.632;23.198;2023-07-13T17:25:59;12.55;;;4.03;;
34505;SDS011;20748;42.632;23.198;2023-07-13T17:32:01;9.63;;;4.38;;
34505;SDS011;20748;42.632;23.198;2023-07-13T17:34:35;6.47;;;3.38;;
34505;SDS011;20748;42.632;23.198;2023-07-13T17:37:17;6.40;;;3.47;;
34505;SDS011;20748;42.632;23.198;2023-07-13T17:39:50;9.02;;;3.45;;
34505;SDS011;20748;42.632;23.198;2023-07-13T17:42:22;4.90;;;2.78;;
34505;SDS011;20748;42.632;23.198;2023-07-13T17:44:55;6.15;;;3.63;;
34505;SDS011;20748;42.632;23.198;2023-07-13T17:47:29;11.63;;;4.25;;
34505;SDS011;20748;42.632;23.198;2023-07-13T17:56:40;6.65;;;3.38;;
34505;SDS011;20748;42.632;23.198;2023-07-13T17:59:14;7.53;;;4.15;;
34505;SDS011;20748;42.632;23.198;2023-07-13T18:01:47;9.27;;;3.50;;
34505;SDS011;20748;42.632;23.198;2023-07-13T18:04:19;10.00;;;5.32;;
34505;SDS011;20748;42.632;23.198;2023-07-13T18:06:54;9.25;;;3.58;;
34505;SDS011;20748;42.632;23.198;2023-07-13T18:09:27;13.70;;;6.00;;
34505;SDS011;20748;42.632;23.198;2023-07-13T18:12:02;6.10;;;4.28;;
34505;SDS011;20748;42.632;23.198;2023-07-13T18:17:58;7.00;;;3.67;;
34505;SDS011;20748;42.632;23.198;2023-07-13T18:20:32;8.02;;;3.95;;
34505;SDS011;20748;42.632;23.198;2023-07-13T18:23:04;5.60;;;3.53;;
34505;SDS011;20748;42.632;23.198;2023-07-13T18:25:47;6.35;;;4.00;;
34505;SDS011;20748;42.632;23.198;2023-07-13T18:28:20;8.38;;;3.58;;
34505;SDS011;20748;42.632;23.198;2023-07-13T18:30:53;8.00;;;3.85;;
34505;SDS011;20748;42.632;23.198;2023-07-13T18:33:29;8.48;;;4.75;;
34505;SDS011;20748;42.632;23.198;2023-07-13T18:42:33;7.40;;;3.30;;
34505;SDS011;20748;42.632;23.198;2023-07-13T18:45:07;7.32;;;3.72;;
34505;SDS011;20748;42.632;23.198;2023-07-13T18:47:42;11.60;;;3.53;;
34505;SDS011;20748;42.632;23.198;2023-07-13T18:50:18;6.45;;;3.75;;
34505;SDS011;20748;42.632;23.198;2023-07-13T18:52:52;12.68;;;3.70;;
34505;SDS011;20748;42.632;23.198;2023-07-13T18:55:25;10.25;;;4.00;;
34505;SDS011;20748;42.632;23.198;2023-07-13T18:57:58;7.10;;;3.10;;
34505;SDS011;20748;42.632;23.198;2023-07-13T19:05:50;10.82;;;3.47;;
34505;SDS011;20748;42.632;23.198;2023-07-13T19:08:32;7.53;;;3.83;;
34505;SDS011;20748;42.632;23.198;2023-07-13T19:11:04;7.65;;;3.58;;
34505;SDS011;20748;42.632;23.198;2023-07-13T19:13:42;6.63;;;4.40;;
34505;SDS011;20748;42.632;23.198;2023-07-13T19:16:16;10.50;;;3.97;;
34505;SDS011;20748;42.632;23.198;2023-07-13T19:18:48;7.15;;;3.67;;
34505;SDS011;20748;42.632;23.198;2023-07-13T19:21:26;7.45;;;3.83;;
34505;SDS011;20748;42.632;23.198;2023-07-13T19:27:09;7.93;;;3.78;;